Time;durP1;ratioP1;P1;durP2;ratioP2;P2;SDS_P1;SDS_P2;PMS_P1;PMS_P2;Temp;Humidity;BMP_temperature;BMP_pressure;BME280_temperature;BME280_humidity;BME280_pressure;Samples;Min_cycle;Max_cycle;Signal;HPM_P1;HPM_P2
2021/06/02 00:01:48;;;;;;;15.60;4.80;;;;;;;11.32;51.68;100651.97;4967899;28;20039;-72
2021/06/02 00:04:18;;;;;;;12.75;4.45;;;;;;;11.28;51.10;100650.25;4984067;28;20058;-76
2021/06/02 00:06:44;;;;;;;13.07;5.00;;;;;;;11.26;51.30;100651.16;4967852;28;20070;-76
2021/06/02 00:09:13;;;;;;;19.45;4.65;;;;;;;11.32;50.95;100654.63;4965884;28;20051;-71
2021/06/02 00:11:40;;;;;;;16.88;4.43;;;;;;;11.31;51.08;100659.97;4967893;28;20819;-76
2021/06/02 00:14:06;;;;;;;20.05;4.35;;;;;;;11.25;51.15;100652.94;4967559;28;20047;-77
2021/06/02 00:16:32;;;;;;;18.55;4.40;;;;;;;11.16;51.48;100650.34;4947216;28;20499;-75
2021/06/02 00:18:59;;;;;;;16.15;4.75;;;;;;;11.02;51.40;100627.47;4964720;28;20057;-77
2021/06/02 00:21:27;;;;;;;17.25;4.30;;;;;;;11.17;51.52;100656.53;4967436;28;20132;-80
2021/06/02 00:23:53;;;;;;;12.85;4.95;;;;;;;11.11;51.11;100656.63;4934726;28;20047;-74
2021/06/02 00:26:20;;;;;;;12.25;4.43;;;;;;;10.92;52.22;100645.22;4945669;28;20525;-71
2021/06/02 00:28:47;;;;;;;11.48;3.90;;;;;;;10.98;52.09;100655.81;4982175;28;20077;-75
2021/06/02 00:31:15;;;;;;;10.32;4.10;;;;;;;11.10;51.43;100660.13;4965108;28;20529;-75
2021/06/02 00:33:42;;;;;;;13.75;4.03;;;;;;;11.05;51.54;100660.19;4965751;28;20039;-71
2021/06/02 00:36:12;;;;;;;7.03;3.78;;;;;;;10.99;51.63;100652.25;4965925;28;20797;-77
2021/06/02 00:38:40;;;;;;;6.82;3.55;;;;;;;10.98;51.52;100658.47;4966403;28;20030;-79
2021/06/02 00:41:06;;;;;;;12.13;3.97;;;;;;;11.00;52.14;100659.31;4966099;28;20058;-75
2021/06/02 00:43:33;;;;;;;8.90;3.78;;;;;;;10.92;52.08;100663.81;4931457;28;20142;-77
2021/06/02 00:45:59;;;;;;;10.52;3.40;;;;;;;10.91;51.84;100664.72;4966750;28;20130;-80
2021/06/02 00:48:25;;;;;;;6.78;3.28;;;;;;;10.68;52.15;100629.50;4965874;28;20085;-79
2021/06/02 00:50:51;;;;;;;5.53;3.33;;;;;;;10.87;52.02;100664.72;4964938;28;20117;-73
2021/06/02 00:53:18;;;;;;;6.35;3.78;;;;;;;10.81;52.23;100662.13;4966556;28;20105;-78
2021/06/02 00:55:45;;;;;;;10.95;3.72;;;;;;;10.90;52.11;100667.38;4964918;28;20047;-70
2021/06/02 00:58:27;;;;;;;7.30;3.40;;;;;;;10.72;52.47;100659.56;4971830;28;20045;-75
2021/06/02 01:00:53;;;;;;;6.93;3.58;;;;;;;10.78;52.66;100655.09;4963760;28;20057;-76
2021/06/02 01:03:23;;;;;;;6.90;3.40;;;;;;;10.85;52.50;100651.50;4964303;28;20132;-76
2021/06/02 01:05:51;;;;;;;12.40;3.50;;;;;;;10.89;52.69;100655.91;4945424;28;20116;-72
2021/06/02 01:08:21;;;;;;;11.80;3.75;;;;;;;10.91;52.20;100653.22;4963223;28;20062;-75
2021/06/02 01:10:51;;;;;;;14.73;3.42;;;;;;;10.94;52.40;100650.53;4963897;28;20042;-76
2021/06/02 01:13:21;;;;;;;6.03;3.20;;;;;;;10.88;52.53;100651.44;4962120;28;20566;-79
2021/06/02 01:15:49;;;;;;;9.07;3.30;;;;;;;10.87;52.37;100655.00;4955180;28;20043;-77
2021/06/02 01:18:17;;;;;;;8.82;3.22;;;;;;;10.88;52.39;100654.09;4947487;28;20172;-77
2021/06/02 01:20:44;;;;;;;10.30;3.92;;;;;;;10.88;52.42;100663.88;4969943;28;20116;-71
2021/06/02 01:23:12;;;;;;;7.85;3.60;;;;;;;10.73;52.98;100643.63;4962765;28;20125;-80
2021/06/02 01:25:39;;;;;;;6.60;3.70;;;;;;;10.87;52.71;100660.31;4943460;28;20744;-80
2021/06/02 01:28:05;;;;;;;11.07;3.80;;;;;;;10.85;52.98;100655.91;4978413;28;20137;-77
2021/06/02 01:30:32;;;;;;;11.10;3.97;;;;;;;10.88;52.99;100653.25;4961295;28;20169;-74
2021/06/02 01:33:33;;;;;;;9.93;3.53;;;;;;;10.88;53.44;100648.81;4945546;28;20047;-79
2021/06/02 01:36:06;;;;;;;11.27;3.50;;;;;;;10.84;53.08;100660.31;4964003;28;20046;-79
2021/06/02 01:39:12;;;;;;;9.88;3.50;;;;;;;10.64;53.53;100633.06;4964818;28;20126;-80
2021/06/02 01:42:07;;;;;;;14.85;4.38;;;;;;;10.84;53.80;100656.81;4963414;28;20525;-82
2021/06/02 01:44:55;;;;;;;8.48;3.90;;;;;;;10.85;53.71;100662.13;4967494;28;20047;-75
2021/06/02 01:47:23;;;;;;;15.55;4.60;;;;;;;10.80;54.22;100657.72;4966888;28;20129;-80
2021/06/02 01:50:07;;;;;;;10.10;4.22;;;;;;;10.88;53.92;100666.50;4932135;28;20518;-79
2021/06/02 01:53:15;;;;;;;12.38;4.13;;;;;;;10.74;54.18;100663.06;4956093;28;20097;-78
2021/06/02 01:55:56;;;;;;;13.73;5.03;;;;;;;10.67;54.36;100643.66;4893692;29;20139;-81
2021/06/02 01:58:40;;;;;;;14.10;3.78;;;;;;;10.84;54.73;100665.63;4914717;29;20103;-80
2021/06/02 02:01:43;;;;;;;10.30;3.72;;;;;;;10.85;54.76;100664.75;4911837;29;20052;-79
2021/06/02 02:04:44;;;;;;;;;;;;;;;10.84;54.95;100662.97;4907427;29;20107;-74
2021/06/02 02:07:25;;;;;;;9.30;3.50;;;;;;;10.86;55.00;100660.31;4908633;29;20308;-81
2021/06/02 02:10:05;;;;;;;9.40;4.65;;;;;;;10.72;55.21;100641.84;4919677;29;20441;-81
2021/06/02 02:12:36;;;;;;;11.73;3.88;;;;;;;10.89;54.75;100671.81;4891644;29;20138;-82
2021/06/02 02:15:02;;;;;;;12.90;4.00;;;;;;;10.94;55.17;100671.75;4905937;29;20048;-78
2021/06/02 02:18:02;;;;;;;10.93;4.45;;;;;;;10.87;55.03;100662.06;4902776;29;20074;-72
2021/06/02 02:20:38;;;;;;;8.25;3.65;;;;;;;11.01;54.74;100663.75;4896351;29;20058;-78
2021/06/02 02:23:26;;;;;;;11.88;3.75;;;;;;;10.99;54.40;100662.03;4892929;29;20139;-79
2021/06/02 02:26:15;;;;;;;10.82;3.97;;;;;;;11.01;55.06;100661.09;4892297;28;20502;-77
2021/06/02 02:28:47;;;;;;;12.45;3.90;;;;;;;11.05;54.66;100662.84;4965197;28;20121;-81
2021/06/02 02:31:31;;;;;;;11.35;3.45;;;;;;;11.02;54.72;100667.28;4971411;28;20046;-78
2021/06/02 02:34:45;;;;;;;9.32;3.72;;;;;;;11.04;54.88;100665.50;4966521;28;20046;-80
2021/06/02 02:37:22;;;;;;;9.48;3.63;;;;;;;11.06;53.85;100642.47;4959140;28;20050;-79
2021/06/02 02:39:54;;;;;;;7.15;3.40;;;;;;;11.21;54.15;100669.78;4964624;28;20054;-78
2021/06/02 02:42:39;;;;;;;7.50;3.27;;;;;;;11.29;54.18;100675.91;4968036;28;20180;-80
2021/06/02 02:45:29;;;;;;;10.88;3.33;;;;;;;11.27;53.70;100668.88;4946576;28;20043;-80
2021/06/02 02:48:06;;;;;;;9.50;3.63;;;;;;;11.35;54.15;100665.22;4932925;29;20073;-79
2021/06/02 02:50:53;;;;;;;12.02;3.10;;;;;;;11.43;53.96;100666.03;4949614;28;20933;-73
2021/06/02 02:53:37;;;;;;;10.13;3.38;;;;;;;11.45;52.94;100661.63;4951622;28;20563;-84
2021/06/02 02:56:11;;;;;;;6.50;2.67;;;;;;;11.60;52.69;100669.47;4974819;28;20499;-78
2021/06/02 02:59:05;;;;;;;10.63;2.92;;;;;;;11.69;52.45;100668.47;4969062;28;20492;-79
2021/06/02 03:01:57;;;;;;;6.18;3.03;;;;;;;11.72;52.55;100661.38;4948920;28;20427;-79
2021/06/02 03:04:25;;;;;;;7.97;2.92;;;;;;;11.75;52.31;100663.13;4968197;28;20049;-79
2021/06/02 03:06:59;;;;;;;11.23;2.67;;;;;;;11.80;51.52;100662.19;4950855;28;20486;-79
2021/06/02 03:09:45;;;;;;;5.60;2.63;;;;;;;11.95;51.72;100669.09;4975818;28;20042;-77
2021/06/02 03:12:44;;;;;;;6.15;2.92;;;;;;;11.92;51.88;100662.03;4966148;28;20056;-79
2021/06/02 03:15:43;;;;;;;6.22;2.90;;;;;;;12.04;51.01;100679.63;4966730;28;20043;-77
2021/06/02 03:18:22;;;;;;;11.23;3.50;;;;;;;12.07;51.39;100668.97;4965672;28;20057;-80
2021/06/02 03:21:29;;;;;;;7.70;2.83;;;;;;;12.13;50.87;100675.06;4950857;28;20042;-79
2021/06/02 03:24:25;;;;;;;5.20;2.70;;;;;;;12.09;50.89;100667.16;4894123;29;20131;-78
2021/06/02 03:27:03;;;;;;;10.15;3.00;;;;;;;12.22;51.15;100684.72;4913789;29;20174;-72
2021/06/02 03:29:52;;;;;;;8.20;2.63;;;;;;;12.28;50.99;100677.56;4908983;29;20096;-81
2021/06/02 03:32:28;;;;;;;5.05;2.47;;;;;;;12.36;50.85;100694.31;4896713;29;20090;-78
2021/06/02 03:35:48;;;;;;;8.65;2.65;;;;;;;12.50;50.84;100688.81;4909218;29;20048;-81
2021/06/02 03:38:38;;;;;;;8.27;2.90;;;;;;;12.60;50.63;100683.34;4908355;29;20528;-78
2021/06/02 03:41:41;;;;;;;8.80;2.90;;;;;;;12.67;50.14;100687.66;4907799;29;20060;-78
2021/06/02 03:44:48;;;;;;;7.85;2.80;;;;;;;12.74;50.14;100684.00;4903930;29;20530;-79
2021/06/02 03:47:38;;;;;;;8.50;3.10;;;;;;;12.79;50.13;100691.94;4903010;29;20060;-71
2021/06/02 03:50:13;;;;;;;6.47;2.88;;;;;;;12.83;50.05;100697.22;4908090;29;20047;-73
2021/06/02 03:52:48;;;;;;;7.40;2.80;;;;;;;12.90;50.13;100695.34;4907132;29;20071;-76
2021/06/02 03:55:37;;;;;;;8.38;3.10;;;;;;;12.86;49.64;100706.94;4938413;28;20407;-75
2021/06/02 03:59:00;;;;;;;7.93;3.15;;;;;;;13.06;49.66;100708.41;4960890;28;20193;-77
2021/06/02 04:01:40;;;;;;;6.63;2.57;;;;;;;13.18;49.69;100710.03;4910849;29;20828;-77
2021/06/02 04:04:24;;;;;;;6.80;2.58;;;;;;;13.26;49.00;100703.66;4943075;28;20046;-76
2021/06/02 04:06:53;;;;;;;9.23;3.15;;;;;;;13.34;48.94;100709.72;4930149;28;20047;-75
2021/06/02 04:09:26;;;;;;;6.38;2.85;;;;;;;13.41;48.68;100714.06;4945824;28;20125;-75
2021/06/02 04:12:10;;;;;;;12.48;2.65;;;;;;;13.48;48.26;100712.19;4926338;29;20130;-74
2021/06/02 04:14:37;;;;;;;6.07;3.08;;;;;;;13.54;48.68;100710.28;4943808;28;20051;-74
2021/06/02 04:17:04;;;;;;;8.68;2.83;;;;;;;13.64;48.40;100716.34;4929759;29;20074;-78
2021/06/02 04:19:33;;;;;;;7.88;2.45;;;;;;;13.61;48.04;100706.63;4914103;29;20063;-76
2021/06/02 04:22:08;;;;;;;8.57;3.30;;;;;;;13.81;47.40;100731.13;4912330;29;20051;-76
2021/06/02 04:24:36;;;;;;;6.97;2.40;;;;;;;13.90;46.87;100736.28;4945586;28;20578;-77
2021/06/02 04:27:04;;;;;;;10.27;2.92;;;;;;;13.91;46.65;100726.53;4903569;29;20051;-76
2021/06/02 04:29:31;;;;;;;10.52;2.50;;;;;;;13.92;46.76;100714.06;4914005;29;20039;-76
2021/06/02 04:32:15;;;;;;;3.90;2.30;;;;;;;14.12;46.65;100726.09;4921403;28;20064;-74
2021/06/02 04:34:43;;;;;;;9.20;2.97;;;;;;;14.18;45.83;100730.44;4966748;28;20419;-73
2021/06/02 04:37:10;;;;;;;8.18;2.20;;;;;;;14.22;45.64;100726.84;4953139;28;20504;-72
2021/06/02 04:39:39;;;;;;;6.03;2.20;;;;;;;14.25;45.20;100735.69;4930292;29;20066;-73
2021/06/02 04:42:08;;;;;;;13.85;3.20;;;;;;;14.34;45.47;100738.16;4954180;28;20058;-82
2021/06/02 04:44:36;;;;;;;7.57;2.70;;;;;;;14.42;45.52;100746.00;4966172;28;20427;-83
2021/06/02 04:47:03;;;;;;;5.65;3.00;;;;;;;14.50;45.61;100739.63;4949489;28;20137;-83
2021/06/02 04:50:08;;;;;;;7.50;2.50;;;;;;;14.59;44.65;100741.22;4966116;28;20126;-82
2021/06/02 04:52:54;;;;;;;9.18;2.63;;;;;;;14.71;44.33;100755.19;4940068;28;20110;-78
2021/06/02 04:55:44;;;;;;;9.73;3.08;;;;;;;14.77;44.50;100746.16;4966571;28;20055;-83
2021/06/02 04:58:48;;;;;;;6.30;2.33;;;;;;;14.85;44.41;100755.78;4932538;28;20987;-81
2021/06/02 05:01:57;;;;;;;5.43;2.30;;;;;;;14.94;44.30;100754.69;4945591;28;20401;-72
2021/06/02 05:04:43;;;;;;;5.03;2.40;;;;;;;15.01;44.11;100759.88;4925599;28;20058;-71
2021/06/02 05:07:24;;;;;;;4.53;2.42;;;;;;;15.11;44.30;100764.09;4927251;29;20180;-71
2021/06/02 05:09:55;;;;;;;7.22;2.13;;;;;;;15.12;42.71;100773.88;4942391;28;20059;-71
2021/06/02 05:12:45;;;;;;;3.90;2.30;;;;;;;15.21;42.87;100772.78;4945370;28;20096;-72
2021/06/02 05:15:23;;;;;;;5.18;2.40;;;;;;;15.24;42.18;100778.94;4927412;28;20149;-72
2021/06/02 05:18:07;;;;;;;5.72;2.50;;;;;;;15.32;42.50;100776.97;4909234;29;20523;-70
2021/06/02 05:24:07;;;;;;;11.02;2.10;;;;;;;15.54;41.85;100785.41;4933837;29;20050;-71
2021/06/02 05:26:52;;;;;;;8.85;2.45;;;;;;;15.65;41.79;100786.91;4944199;28;20051;-71
2021/06/02 05:29:43;;;;;;;7.15;2.20;;;;;;;15.71;41.28;100784.06;4921239;29;20059;-70
2021/06/02 05:32:39;;;;;;;6.88;2.10;;;;;;;15.80;41.08;100789.19;4940527;28;20047;-71
2021/06/02 05:35:35;;;;;;;5.15;2.25;;;;;;;15.86;40.09;100788.16;4921033;28;20141;-75
2021/06/02 05:38:00;;;;;;;5.90;1.83;;;;;;;15.90;40.15;100777.34;4930857;28;20148;-71
2021/06/02 05:40:35;;;;;;;11.05;1.80;;;;;;;16.02;39.64;100793.06;4948267;28;20101;-71
2021/06/02 05:43:04;;;;;;;6.72;2.22;;;;;;;16.06;38.00;100786.72;4960784;28;20039;-72
2021/06/02 05:46:10;;;;;;;3.80;1.95;;;;;;;16.13;38.79;100796.34;4962448;28;20047;-70
2021/06/02 05:49:14;;;;;;;9.88;1.60;;;;;;;16.18;38.71;100789.06;4980129;28;20054;-69
2021/06/02 05:52:07;;;;;;;11.63;1.92;;;;;;;16.25;38.92;100782.66;4964798;28;20058;-68
2021/06/02 05:54:51;;;;;;;4.30;1.83;;;;;;;16.38;38.84;100788.56;4960786;28;20070;-70
2021/06/02 05:57:39;;;;;;;8.45;2.28;;;;;;;16.44;37.61;100785.72;4977244;28;20129;-70
2021/06/02 06:00:29;;;;;;;11.90;1.60;;;;;;;16.46;37.33;100782.09;4961566;28;20191;-68
2021/06/02 06:03:15;;;;;;;4.88;1.48;;;;;;;16.57;37.00;100795.16;4942642;28;20521;-70
2021/06/02 06:06:02;;;;;;;10.77;2.05;;;;;;;16.64;35.72;100788.72;4938286;28;20051;-72
2021/06/02 06:08:47;;;;;;;5.22;1.83;;;;;;;16.72;35.13;100797.44;4960841;28;20050;-72
2021/06/02 06:11:51;;;;;;;3.42;1.60;;;;;;;16.75;35.92;100786.63;4962932;28;20537;-73
2021/06/02 06:14:26;;;;;;;9.30;1.80;;;;;;;16.82;35.96;100786.41;4966170;28;20042;-69
2021/06/02 06:17:07;;;;;;;6.93;1.83;;;;;;;16.88;34.57;100785.34;4950301;28;20050;-77
2021/06/02 06:19:55;;;;;;;9.18;1.70;;;;;;;16.91;34.41;100779.91;4951007;28;20047;-69
2021/06/02 06:22:48;;;;;;;5.88;1.70;;;;;;;16.98;34.28;100787.69;4962130;28;20050;-69
2021/06/02 06:25:50;;;;;;;8.18;1.77;;;;;;;17.05;34.02;100783.06;4964586;28;20066;-69
2021/06/02 06:28:42;;;;;;;3.72;1.55;;;;;;;17.05;34.33;100769.66;4859858;29;20063;-76
2021/06/02 06:31:36;;;;;;;4.90;1.70;;;;;;;17.19;33.74;100786.19;4881111;29;20040;-69
2021/06/02 06:34:09;;;;;;;8.48;1.70;;;;;;;17.30;33.40;100787.63;4864927;29;20071;-77
2021/06/02 06:36:37;;;;;;;7.13;2.30;;;;;;;17.35;33.15;100785.69;4858245;29;20216;-69
2021/06/02 06:39:34;;;;;;;4.70;1.85;;;;;;;17.42;33.35;100781.03;4857808;29;20108;-70
2021/06/02 06:42:02;;;;;;;13.90;2.20;;;;;;;17.33;33.50;100766.06;4882600;29;20143;-69
2021/06/02 06:44:29;;;;;;;9.20;1.98;;;;;;;17.54;33.17;100781.53;4887019;29;20116;-69
2021/06/02 06:46:56;;;;;;;7.85;2.20;;;;;;;17.50;33.40;100752.16;4856151;29;20414;-75
2021/06/02 06:49:25;;;;;;;5.85;2.00;;;;;;;17.65;33.57;100778.50;4865714;29;20259;-71
2021/06/02 06:51:52;;;;;;;9.65;1.83;;;;;;;17.70;33.26;100782.78;4874979;29;20068;-69
2021/06/02 06:54:21;;;;;;;5.30;1.67;;;;;;;17.82;32.99;100782.38;4877408;29;20048;-74
2021/06/02 06:56:47;;;;;;;11.02;2.15;;;;;;;17.97;32.49;100780.97;4871330;29;20068;-74
2021/06/02 06:59:18;;;;;;;5.28;1.60;;;;;;;18.04;32.50;100775.34;4890954;29;20056;-70
2021/06/02 07:01:45;;;;;;;4.90;1.73;;;;;;;18.19;31.98;100781.13;4863295;29;20282;-68
2021/06/02 07:04:11;;;;;;;9.40;1.52;;;;;;;18.34;32.35;100783.25;4874391;28;20059;-70
2021/06/02 07:06:38;;;;;;;13.40;2.00;;;;;;;18.63;31.75;100777.75;4970592;28;20046;-70
2021/06/02 07:09:05;;;;;;;11.52;1.75;;;;;;;18.81;30.96;100779.75;4970741;28;20522;-68
2021/06/02 07:11:37;;;;;;;3.47;1.85;;;;;;;19.08;30.89;100782.28;4951804;28;20097;-70
2021/06/02 07:14:04;;;;;;;7.85;2.20;;;;;;;19.50;30.03;100783.31;4971099;28;20547;-68
2021/06/02 07:16:34;;;;;;;10.18;2.47;;;;;;;19.78;29.87;100781.25;4961956;28;20514;-73
2021/06/02 07:19:01;;;;;;;3.50;1.63;;;;;;;20.25;29.05;100781.97;4950120;28;20137;-69
2021/06/02 07:21:28;;;;;;;6.05;1.70;;;;;;;20.19;29.17;100779.53;4952675;28;20051;-73
2021/06/02 07:23:55;;;;;;;4.35;2.00;;;;;;;20.39;28.10;100768.78;4966329;28;20050;-73
2021/06/02 07:26:21;;;;;;;12.90;1.80;;;;;;;20.81;27.66;100772.25;4967114;28;20570;-69
2021/06/02 07:28:48;;;;;;;7.28;1.70;;;;;;;21.16;26.87;100769.69;4982035;28;20138;-80
2021/06/02 07:31:14;;;;;;;7.93;1.70;;;;;;;21.70;27.12;100768.84;4966468;28;20643;-71
2021/06/02 07:33:40;;;;;;;16.58;1.70;;;;;;;21.76;26.52;100747.84;4962765;28;20047;-70
2021/06/02 07:36:08;;;;;;;7.85;1.92;;;;;;;22.08;26.16;100738.13;4964868;28;20046;-74
2021/06/02 07:38:35;;;;;;;9.63;2.17;;;;;;;22.53;25.45;100749.25;4965773;28;20102;-72
2021/06/02 07:41:00;;;;;;;11.60;1.92;;;;;;;23.02;24.53;100764.56;4949542;28;20582;-72
2021/06/02 07:43:26;;;;;;;4.40;1.48;;;;;;;22.82;24.09;100762.06;4967760;28;20147;-70
2021/06/02 07:45:53;;;;;;;3.95;1.60;;;;;;;23.12;23.79;100745.97;4964573;28;20039;-72
2021/06/02 07:48:19;;;;;;;6.90;1.70;;;;;;;23.27;23.76;100765.00;4952029;28;20057;-71
2021/06/02 07:50:46;;;;;;;5.53;1.40;;;;;;;22.33;24.58;100757.50;4950341;28;20050;-72
2021/06/02 07:53:12;;;;;;;12.32;2.00;;;;;;;22.70;24.76;100761.88;4962644;28;20043;-70
2021/06/02 07:55:37;;;;;;;6.40;1.85;;;;;;;22.90;24.52;100753.56;4950085;28;20053;-79
2021/06/02 07:58:04;;;;;;;3.65;1.63;;;;;;;23.70;23.26;100756.16;4965094;28;20038;-79
2021/06/02 08:00:29;;;;;;;5.90;2.05;;;;;;;24.45;22.69;100757.03;4949457;28;20142;-79
2021/06/02 08:02:56;;;;;;;7.97;1.80;;;;;;;25.05;22.05;100752.41;4961910;28;20043;-67
2021/06/02 08:05:22;;;;;;;9.52;2.00;;;;;;;25.52;21.52;100759.22;4966523;28;20054;-70
2021/06/02 08:07:48;;;;;;;5.03;1.88;;;;;;;26.09;21.03;100759.06;4964110;28;20446;-74
2021/06/02 08:10:16;;;;;;;15.27;1.90;;;;;;;25.16;21.44;100747.16;4948076;28;20049;-78
2021/06/02 08:12:43;;;;;;;4.72;1.80;;;;;;;25.91;20.80;100748.44;4967939;28;20047;-72
2021/06/02 08:15:11;;;;;;;6.65;1.52;;;;;;;26.23;20.27;100751.75;4965545;28;20042;-78
2021/06/02 08:17:39;;;;;;;4.30;1.42;;;;;;;26.56;19.44;100753.94;4980281;28;20043;-72
2021/06/02 08:20:07;;;;;;;6.60;1.85;;;;;;;27.98;18.23;100759.78;4946316;28;20121;-76
2021/06/02 08:22:34;;;;;;;11.63;1.88;;;;;;;29.79;17.08;100769.81;4964016;28;20156;-71
2021/06/02 08:25:10;;;;;;;4.40;1.52;;;;;;;31.25;15.91;100766.97;4949913;28;20069;-70
2021/06/02 08:27:36;;;;;;;10.57;2.00;;;;;;;32.15;14.68;100761.34;4943155;28;21311;-73
2021/06/02 08:30:05;;;;;;;14.27;1.90;;;;;;;30.57;16.01;100744.75;4966452;28;20058;-72
2021/06/02 08:32:31;;;;;;;7.18;2.03;;;;;;;31.04;15.93;100763.41;4961467;28;20128;-71
2021/06/02 08:34:57;;;;;;;4.95;2.13;;;;;;;31.60;15.09;100761.06;4963613;28;20503;-70
2021/06/02 08:37:23;;;;;;;6.32;2.08;;;;;;;32.40;15.05;100752.53;4964035;28;20042;-71
2021/06/02 08:39:49;;;;;;;10.90;2.00;;;;;;;33.30;13.46;100762.06;4964304;28;20455;-73
2021/06/02 08:42:19;;;;;;;8.38;1.67;;;;;;;32.40;14.73;100751.69;4978314;28;20042;-76
2021/06/02 08:44:45;;;;;;;9.77;1.77;;;;;;;33.39;13.64;100752.06;4963314;28;20817;-73
2021/06/02 08:47:11;;;;;;;4.20;1.85;;;;;;;33.52;13.89;100758.09;4965089;28;20427;-69
2021/06/02 08:49:36;;;;;;;4.93;1.50;;;;;;;33.39;13.57;100763.97;4964504;28;20038;-71
2021/06/02 08:52:05;;;;;;;5.43;1.80;;;;;;;33.72;13.88;100755.09;4963432;28;20100;-72
2021/06/02 08:54:32;;;;;;;6.60;2.30;;;;;;;33.75;13.42;100756.66;4963485;28;20053;-71
2021/06/02 08:57:02;;;;;;;7.97;2.08;;;;;;;32.31;14.49;100752.59;4979470;28;20465;-72
2021/06/02 08:59:35;;;;;;;11.48;2.00;;;;;;;32.23;14.40;100730.44;4968167;28;20054;-78
2021/06/02 09:02:05;;;;;;;7.93;1.73;;;;;;;29.81;15.71;100724.91;4972849;28;20046;-72
2021/06/02 09:04:33;;;;;;;8.10;1.80;;;;;;;32.36;14.41;100731.88;4979420;28;20047;-73
2021/06/02 09:07:06;;;;;;;7.50;1.65;;;;;;;30.14;15.58;100713.91;4963810;28;20046;-75
2021/06/02 09:09:33;;;;;;;9.45;2.10;;;;;;;30.14;16.21;100723.94;4948233;28;20051;-74
2021/06/02 09:12:05;;;;;;;5.43;1.80;;;;;;;32.82;14.15;100723.75;4962518;28;20557;-74
2021/06/02 09:14:37;;;;;;;3.92;1.67;;;;;;;33.97;13.37;100740.59;4978411;28;20132;-69
2021/06/02 09:17:08;;;;;;;8.15;1.73;;;;;;;34.76;12.60;100733.28;4965839;28;20043;-85
2021/06/02 09:19:34;;;;;;;6.13;1.83;;;;;;;35.45;12.39;100721.16;4964684;28;20046;-73
2021/06/02 09:22:00;;;;;;;3.75;1.80;;;;;;;35.05;12.50;100736.59;4962408;28;20045;-77
2021/06/02 09:25:11;;;;;;;9.25;1.60;;;;;;;32.97;13.95;100711.28;4963314;28;20081;-78
2021/06/02 09:27:49;;;;;;;6.28;1.40;;;;;;;30.51;15.84;100725.25;4943071;28;20114;-74
2021/06/02 09:30:21;;;;;;;2.80;1.10;;;;;;;28.54;17.60;100717.22;4963579;28;20928;-74
2021/06/02 09:32:50;;;;;;;6.18;1.90;;;;;;;29.81;16.19;100727.66;4962539;28;20392;-79
2021/06/02 09:35:16;;;;;;;7.22;1.70;;;;;;;32.55;14.78;100728.28;4963166;28;20086;-71
2021/06/02 09:37:53;;;;;;;14.82;2.15;;;;;;;34.22;12.87;100717.81;5021465;23;20095;-70
2021/06/02 09:40:32;;;;;;;6.10;1.80;;;;;;;35.59;11.99;100726.00;5041488;28;20164;-71
2021/06/02 09:42:58;;;;;;;6.95;2.00;;;;;;;34.93;12.32;100724.09;5022202;28;20059;-72
2021/06/02 09:45:25;;;;;;;6.82;1.40;;;;;;;34.77;12.86;100737.75;5023750;28;20049;-70
2021/06/02 09:48:00;;;;;;;3.22;1.33;;;;;;;32.34;14.43;100684.50;5025568;28;20571;-71
2021/06/02 09:50:34;;;;;;;4.63;1.60;;;;;;;31.26;15.11;100726.75;5043397;28;20041;-71
2021/06/02 09:53:03;;;;;;;15.75;2.00;;;;;;;33.95;13.40;100739.03;5006652;28;20155;-71
2021/06/02 09:55:35;;;;;;;11.70;3.00;;;;;;;35.60;11.86;100736.00;5011767;28;20497;-70
2021/06/02 09:58:01;;;;;;;3.10;1.60;;;;;;;36.30;11.63;100737.44;5035221;28;20568;-69
2021/06/02 10:00:28;;;;;;;9.50;2.30;;;;;;;37.35;10.22;100744.66;5037481;28;20041;-75
2021/06/02 10:03:14;;;;;;;13.00;1.58;;;;;;;36.25;11.42;100740.75;5043485;28;20067;-75
2021/06/02 10:05:51;;;;;;;6.53;1.80;;;;;;;36.78;11.60;100726.44;5012827;28;20418;-77
2021/06/02 10:08:27;;;;;;;11.43;1.60;;;;;;;38.12;10.25;100702.22;5013351;28;20381;-77
2021/06/02 10:10:54;;;;;;;7.43;1.60;;;;;;;37.82;10.53;100728.88;4994309;28;20044;-74
2021/06/02 10:13:22;;;;;;;4.47;1.58;;;;;;;36.85;10.64;100726.59;5037853;28;20068;-74
2021/06/02 10:15:53;;;;;;;3.60;1.27;;;;;;;37.84;10.22;100737.88;5025351;28;20041;-68
2021/06/02 10:18:26;;;;;;;;;;;;;;;37.31;10.93;100740.50;5028939;28;20051;-73
2021/06/02 10:21:03;;;;;;;2.97;1.60;;;;;;;38.42;10.31;100732.66;5043353;28;19928;-77
2021/06/02 10:23:31;;;;;;;3.97;1.30;;;;;;;36.18;11.10;100702.88;5017783;28;20124;-77
2021/06/02 10:26:01;;;;;;;6.07;1.35;;;;;;;34.28;12.63;100706.13;5028477;28;20488;-75
2021/06/02 10:28:30;;;;;;;3.63;1.30;;;;;;;36.66;11.12;100695.47;5013228;28;20052;-74
2021/06/02 10:30:56;;;;;;;8.63;1.63;;;;;;;37.62;10.52;100722.06;5026969;28;20048;-74
2021/06/02 10:33:22;;;;;;;10.13;1.75;;;;;;;37.81;10.37;100721.63;5044520;28;20503;-70
2021/06/02 10:35:48;;;;;;;11.63;1.42;;;;;;;34.21;12.90;100704.19;5026437;28;20048;-73
2021/06/02 10:38:17;;;;;;;7.15;1.80;;;;;;;32.34;14.13;100681.75;5012940;28;20249;-69
2021/06/02 10:40:47;;;;;;;3.42;1.10;;;;;;;30.99;14.69;100690.81;5029406;28;20045;-65
2021/06/02 10:43:42;;;;;;;11.90;1.67;;;;;;;30.38;16.25;100692.63;5025429;28;20512;-72
2021/06/02 10:46:22;;;;;;;5.38;1.38;;;;;;;29.28;17.26;100691.06;5032649;28;20064;-70
2021/06/02 10:48:52;;;;;;;4.55;1.40;;;;;;;28.97;18.28;100696.41;5012331;28;20857;-68
2021/06/02 10:51:35;;;;;;;5.07;1.38;;;;;;;30.20;16.97;100691.47;5021901;28;20045;-70
2021/06/02 10:54:21;;;;;;;7.53;1.50;;;;;;;28.97;17.95;100691.84;5025087;28;20052;-71
2021/06/02 10:57:00;;;;;;;7.95;1.40;;;;;;;29.60;17.29;100682.97;5044249;28;20099;-73
2021/06/02 10:59:27;;;;;;;8.77;1.55;;;;;;;29.31;17.15;100677.16;5021611;28;20290;-67
2021/06/02 11:02:11;;;;;;;8.57;1.80;;;;;;;29.24;17.58;100686.84;5028126;28;20060;-71
2021/06/02 11:04:39;;;;;;;5.68;1.90;;;;;;;29.39;17.87;100688.31;5007219;28;20093;-72
2021/06/02 11:07:17;;;;;;;11.10;1.77;;;;;;;29.97;17.42;100681.59;5028073;28;20128;-72
2021/06/02 11:10:05;;;;;;;6.22;1.35;;;;;;;28.49;18.74;100679.38;5005805;28;20367;-72
2021/06/02 11:12:49;;;;;;;7.10;1.45;;;;;;;27.11;19.83;100670.97;5040272;28;20480;-71
2021/06/02 11:15:30;;;;;;;5.20;1.60;;;;;;;26.44;20.55;100646.88;4998219;28;20058;-74
2021/06/02 11:18:09;;;;;;;10.97;1.80;;;;;;;26.57;21.02;100691.25;5041236;28;20083;-72
2021/06/02 11:21:01;;;;;;;5.78;1.50;;;;;;;26.24;21.10;100660.13;5039027;28;20385;-73
2021/06/02 11:23:35;;;;;;;3.90;1.55;;;;;;;25.79;21.51;100678.59;5027562;28;20032;-73
2021/06/02 11:26:25;;;;;;;6.95;1.50;;;;;;;26.53;20.98;100676.13;5024554;28;20491;-71
2021/06/02 11:28:52;;;;;;;4.43;1.58;;;;;;;27.95;19.34;100680.06;5028953;28;20047;-71
2021/06/02 11:31:20;;;;;;;3.50;1.45;;;;;;;28.42;18.80;100686.31;5025956;28;20052;-71
2021/06/02 11:33:47;;;;;;;7.43;1.42;;;;;;;29.40;17.38;100676.38;5008188;28;20050;-74
2021/06/02 11:36:13;;;;;;;9.15;1.05;;;;;;;30.17;16.65;100679.94;5043328;28;20053;-70
2021/06/02 11:38:41;;;;;;;8.50;1.20;;;;;;;29.64;16.27;100684.47;5038064;28;20099;-69
2021/06/02 11:41:09;;;;;;;6.38;1.45;;;;;;;29.93;16.35;100676.53;5008571;28;20040;-70
2021/06/02 11:43:37;;;;;;;6.38;1.30;;;;;;;29.58;17.03;100668.56;5009991;28;20040;-70
2021/06/02 11:46:04;;;;;;;14.00;2.28;;;;;;;27.82;18.57;100647.44;5010121;28;20075;-72
2021/06/02 11:48:32;;;;;;;8.25;1.60;;;;;;;27.43;19.53;100671.34;5010061;28;20424;-72
2021/06/02 11:51:02;;;;;;;5.88;1.80;;;;;;;26.98;20.57;100661.09;5010334;28;20977;-72
2021/06/02 11:53:36;;;;;;;10.70;1.98;;;;;;;26.51;21.08;100669.06;5027091;28;20093;-71
2021/06/02 11:56:02;;;;;;;6.95;1.60;;;;;;;25.82;21.48;100659.38;5025866;28;20048;-73
2021/06/02 11:58:28;;;;;;;7.10;1.67;;;;;;;25.70;21.87;100662.03;5042055;28;20037;-74
2021/06/02 12:00:59;;;;;;;11.18;1.95;;;;;;;25.33;22.48;100660.94;5025472;28;20033;-76
2021/06/02 12:03:25;;;;;;;6.65;1.80;;;;;;;25.23;22.26;100650.72;5041060;28;20394;-73
2021/06/02 12:05:54;;;;;;;9.45;1.70;;;;;;;25.41;22.28;100665.84;5042249;28;20244;-74
2021/06/02 12:08:21;;;;;;;14.32;1.83;;;;;;;25.44;22.80;100660.22;5037188;28;20051;-68